Share

Madison, MN

Madison-Lac Qui Parle County (KDXX) Elev 1083 ft | 44.98 °N, 96.18 °W | Change Station

Current weather conditions updated 5 minutes ago

Clear
Clear
52 °F
Feels Like 52 °F
N
0
Wind Variable Wind from North
Sunrise 6:33 AM
Sunset 8:15 PM
Moon Waning Gibbous

Tomorrow is forecast to be Warmer than today. Showers possible tomorrow night.

Pressure 30.01 in
Visibility 10.0 miles
Clouds Clear
Dew Point 36 °F
Humidity 54%
Rainfall 0.00 in
Snow Depth Not available.
UV 0 out of 16
Pollen 11.00 out of 12
Air Quality Not available.
Flu Activity Sporadic
METAR KDXX 200434Z AUTO 00000KT 10SM CLR 11/02 A3001 RMK AO2

More Conditions Fewer Conditions

Pressure 30.01 in
Visibility 10.0 miles
Clouds Clear
Dew Point 36 °F
Humidity 54%
Rainfall 0.00 in
Snow Depth Not available.
UV 0 out of 16
Pollen 11.00 out of 12
Air Quality Not available.
Flu Activity Sporadic
METAR KDXX 200434Z AUTO 00000KT 10SM CLR 11/02 A3001 RMK AO2

More Conditions Fewer Conditions

10-Day Weather Forecast

Almanac

Astronomy

Apr. 19, 2014 Rise Set
Actual Time 6:33 AM CDT 8:15 PM CDT
Civil Twilight 6:02 AM CDT 8:46 PM CDT
Nautical Twilight 5:24 AM CDT 9:24 PM CDT
Astronomical Twilight 4:43 AM CDT 10:05 PM CDT
Moon 12:06 AM CDT (4/19) 9:46 AM CDT (4/19)
Length of Visible Light 14h 44m
Length of Day
13h 42m
Tomorrow will be 2m 57s longer.
Waning Gibbous, 73% of the Moon is Illuminated
Apr 20
Waning Gibbous
Apr 22
Last Quarter
Apr 29
New
May 6
First Quarter
May 14
Full

Yesterday's Extremes

State Highs State Lows

Community

  • Sunny day at the coast-Cape Arago Lighthouse
    Sunny day at the coast-Cape Arago Lighthouse
  • Cherry Blossoms
    Cherry Blossoms
  • White-Crowned Sparrow
    White-Crowned Sparrow
  • New Day
    New Day
  • Happy Easter!
    Happy Easter!

WunderPhotos

Upload Photos

1,703,080 photos uploaded!

WunderBlogs® & News

Nearby

Snow Depth

Station Depth Elevation
No new snow has been reported.

Coastal Water Temperatures

Place Temperature
No Stations Reporting

Earthquake Activity

City Distance Mag. Time & Date
No recent earthquake activity has been reported nearby.
Minimum magnitude displayed is 2.5.

Nearby Weather Stations

Station Location Temp. Windchill Dew Point Humidity Wind Precip. Elev Updated Type
RAWS BIG STONE NWR MN, Odessa, MN 53 °F - 39 °F 58% NW  at  1 mph 0.00 in / hr 877 ft 8:51 PM CDT MADIS
Near Windom Park, Montevideo, MN 49.8 °F 50 °F 42 °F 73% ESE  at  0.0 mph 0.00 in / hr 1004 ft 11:39 PM CDT Rapid Fire
Near Chinhinta Park, Montevideo, MN 48.9 °F 49 °F 40 °F 72% West  at  0.0 mph 0.00 in / hr 1024 ft 11:39 PM CDT Rapid Fire
NonFedAWOS MILBANK , Milbank, SD 45 °F 45 °F 34 °F 66% North  at  - 0.00 in / hr 1116 ft 10:55 PM CDT MADIS

Show More Stations Show Fewer Stations

What do you think?

We're not finished. Please let us know what you like, what you don't like, and what you are still missing.